sensor_id;sensor_type;location;lat;lon;timestamp;P1;durP1;ratioP1;P2;durP2;ratioP2
52047;SDS011;46904;49.438;8.752;2022-10-23T00:01:48;3.63;;;1.48;;
52047;SDS011;46904;49.438;8.752;2022-10-23T00:04:39;4.43;;;2.08;;
52047;SDS011;46904;49.438;8.752;2022-10-23T00:07:29;4.68;;;1.70;;
52047;SDS011;46904;49.438;8.752;2022-10-23T00:10:20;6.18;;;1.60;;
52047;SDS011;46904;49.438;8.752;2022-10-23T00:13:11;4.40;;;1.73;;
52047;SDS011;46904;49.438;8.752;2022-10-23T00:16:02;4.25;;;1.55;;
52047;SDS011;46904;49.438;8.752;2022-10-23T00:18:51;6.40;;;1.48;;
52047;SDS011;46904;49.438;8.752;2022-10-23T00:21:42;4.28;;;1.40;;
52047;SDS011;46904;49.438;8.752;2022-10-23T00:24:33;2.97;;;1.60;;
52047;SDS011;46904;49.438;8.752;2022-10-23T00:27:24;1.80;;;1.50;;
52047;SDS011;46904;49.438;8.752;2022-10-23T00:30:15;5.43;;;1.30;;
52047;SDS011;46904;49.438;8.752;2022-10-23T00:33:06;5.78;;;1.83;;
52047;SDS011;46904;49.438;8.752;2022-10-23T00:35:57;4.40;;;2.33;;
52047;SDS011;46904;49.438;8.752;2022-10-23T00:38:48;6.63;;;1.85;;
52047;SDS011;46904;49.438;8.752;2022-10-23T00:41:39;3.55;;;1.80;;
52047;SDS011;46904;49.438;8.752;2022-10-23T00:47:19;5.07;;;1.48;;
52047;SDS011;46904;49.438;8.752;2022-10-23T00:50:09;10.30;;;2.30;;
52047;SDS011;46904;49.438;8.752;2022-10-23T00:53:00;1.75;;;1.30;;
52047;SDS011;46904;49.438;8.752;2022-10-23T00:55:51;5.13;;;2.10;;
52047;SDS011;46904;49.438;8.752;2022-10-23T00:58:42;5.45;;;1.83;;
52047;SDS011;46904;49.438;8.752;2022-10-23T01:01:32;2.20;;;1.30;;
52047;SDS011;46904;49.438;8.752;2022-10-23T01:04:23;2.70;;;1.25;;
52047;SDS011;46904;49.438;8.752;2022-10-23T01:07:19;4.78;;;1.30;;
52047;SDS011;46904;49.438;8.752;2022-10-23T01:10:19;2.60;;;1.30;;
52047;SDS011;46904;49.438;8.752;2022-10-23T01:19:26;2.97;;;1.42;;
52047;SDS011;46904;49.438;8.752;2022-10-23T01:22:32;3.47;;;1.30;;
52047;SDS011;46904;49.438;8.752;2022-10-23T01:28:43;5.68;;;1.50;;
52047;SDS011;46904;49.438;8.752;2022-10-23T01:31:54;2.50;;;1.30;;
52047;SDS011;46904;49.438;8.752;2022-10-23T01:34:48;4.28;;;1.60;;
52047;SDS011;46904;49.438;8.752;2022-10-23T01:37:43;3.10;;;1.40;;
52047;SDS011;46904;49.438;8.752;2022-10-23T01:40:41;1.83;;;1.33;;
52047;SDS011;46904;49.438;8.752;2022-10-23T01:43:39;3.22;;;1.27;;
52047;SDS011;46904;49.438;8.752;2022-10-23T01:46:31;4.78;;;1.40;;
52047;SDS011;46904;49.438;8.752;2022-10-23T01:49:22;2.45;;;1.40;;
52047;SDS011;46904;49.438;8.752;2022-10-23T01:52:13;4.95;;;1.65;;
52047;SDS011;46904;49.438;8.752;2022-10-23T01:55:03;1.40;;;1.20;;
52047;SDS011;46904;49.438;8.752;2022-10-23T01:57:55;1.73;;;1.48;;
52047;SDS011;46904;49.438;8.752;2022-10-23T02:00:46;2.58;;;1.48;;
52047;SDS011;46904;49.438;8.752;2022-10-23T02:03:37;5.75;;;1.30;;
52047;SDS011;46904;49.438;8.752;2022-10-23T02:06:28;2.35;;;1.20;;
52047;SDS011;46904;49.438;8.752;2022-10-23T02:09:18;1.45;;;1.15;;
52047;SDS011;46904;49.438;8.752;2022-10-23T02:12:09;4.70;;;1.70;;
52047;SDS011;46904;49.438;8.752;2022-10-23T02:15:04;2.80;;;1.30;;
52047;SDS011;46904;49.438;8.752;2022-10-23T02:18:08;2.78;;;1.95;;
52047;SDS011;46904;49.438;8.752;2022-10-23T02:24:04;2.33;;;1.17;;
52047;SDS011;46904;49.438;8.752;2022-10-23T02:26:57;3.33;;;1.50;;
52047;SDS011;46904;49.438;8.752;2022-10-23T02:29:52;4.72;;;1.50;;
52047;SDS011;46904;49.438;8.752;2022-10-23T02:32:45;2.05;;;1.50;;
52047;SDS011;46904;49.438;8.752;2022-10-23T02:35:37;2.22;;;1.33;;
52047;SDS011;46904;49.438;8.752;2022-10-23T02:38:33;4.40;;;1.23;;
52047;SDS011;46904;49.438;8.752;2022-10-23T02:44:36;1.80;;;1.08;;
52047;SDS011;46904;49.438;8.752;2022-10-23T02:47:43;3.00;;;1.40;;
52047;SDS011;46904;49.438;8.752;2022-10-23T02:50:37;4.85;;;2.30;;
52047;SDS011;46904;49.438;8.752;2022-10-23T02:56:22;3.72;;;1.30;;
52047;SDS011;46904;49.438;8.752;2022-10-23T02:59:29;1.83;;;1.27;;
52047;SDS011;46904;49.438;8.752;2022-10-23T03:02:23;4.20;;;1.48;;
52047;SDS011;46904;49.438;8.752;2022-10-23T03:05:15;5.05;;;1.52;;
52047;SDS011;46904;49.438;8.752;2022-10-23T03:08:07;2.50;;;1.23;;
52047;SDS011;46904;49.438;8.752;2022-10-23T03:10:58;2.22;;;1.52;;
52047;SDS011;46904;49.438;8.752;2022-10-23T03:13:48;2.40;;;1.88;;
52047;SDS011;46904;49.438;8.752;2022-10-23T03:16:38;4.70;;;1.77;;
52047;SDS011;46904;49.438;8.752;2022-10-23T03:19:28;3.70;;;1.50;;
52047;SDS011;46904;49.438;8.752;2022-10-23T03:22:18;1.67;;;1.20;;
52047;SDS011;46904;49.438;8.752;2022-10-23T03:25:09;1.95;;;1.23;;
52047;SDS011;46904;49.438;8.752;2022-10-23T03:27:59;1.90;;;1.30;;
52047;SDS011;46904;49.438;8.752;2022-10-23T03:30:50;3.38;;;1.20;;
52047;SDS011;46904;49.438;8.752;2022-10-23T03:33:41;8.77;;;1.30;;
52047;SDS011;46904;49.438;8.752;2022-10-23T03:36:31;5.78;;;1.27;;
52047;SDS011;46904;49.438;8.752;2022-10-23T03:39:21;2.35;;;1.30;;
52047;SDS011;46904;49.438;8.752;2022-10-23T03:42:12;2.28;;;1.23;;
52047;SDS011;46904;49.438;8.752;2022-10-23T03:45:03;5.28;;;1.30;;
52047;SDS011;46904;49.438;8.752;2022-10-23T03:47:53;2.53;;;1.08;;
52047;SDS011;46904;49.438;8.752;2022-10-23T03:50:43;4.43;;;2.13;;
52047;SDS011;46904;49.438;8.752;2022-10-23T03:53:34;1.73;;;1.02;;
52047;SDS011;46904;49.438;8.752;2022-10-23T03:56:24;5.78;;;1.80;;
52047;SDS011;46904;49.438;8.752;2022-10-23T03:59:14;3.30;;;1.65;;
52047;SDS011;46904;49.438;8.752;2022-10-23T04:02:05;4.07;;;1.90;;
52047;SDS011;46904;49.438;8.752;2022-10-23T04:04:55;11.50;;;1.98;;
52047;SDS011;46904;49.438;8.752;2022-10-23T04:07:45;7.53;;;2.38;;
52047;SDS011;46904;49.438;8.752;2022-10-23T04:10:36;7.00;;;1.73;;
52047;SDS011;46904;49.438;8.752;2022-10-23T04:13:27;2.42;;;1.90;;
52047;SDS011;46904;49.438;8.752;2022-10-23T04:16:17;7.32;;;1.77;;
52047;SDS011;46904;49.438;8.752;2022-10-23T04:19:07;6.47;;;1.40;;
52047;SDS011;46904;49.438;8.752;2022-10-23T04:21:58;3.42;;;1.73;;
52047;SDS011;46904;49.438;8.752;2022-10-23T04:24:49;1.40;;;1.30;;
52047;SDS011;46904;49.438;8.752;2022-10-23T04:27:40;3.03;;;1.05;;
52047;SDS011;46904;49.438;8.752;2022-10-23T04:30:31;3.40;;;1.30;;
52047;SDS011;46904;49.438;8.752;2022-10-23T04:33:22;2.85;;;1.40;;
52047;SDS011;46904;49.438;8.752;2022-10-23T04:36:12;1.35;;;1.17;;
52047;SDS011;46904;49.438;8.752;2022-10-23T04:39:02;3.28;;;1.20;;
52047;SDS011;46904;49.438;8.752;2022-10-23T04:41:53;4.57;;;1.95;;
52047;SDS011;46904;49.438;8.752;2022-10-23T04:44:43;1.33;;;1.00;;
52047;SDS011;46904;49.438;8.752;2022-10-23T04:47:33;4.03;;;1.67;;
52047;SDS011;46904;49.438;8.752;2022-10-23T04:50:24;2.65;;;1.10;;
52047;SDS011;46904;49.438;8.752;2022-10-23T04:53:14;2.63;;;1.40;;
52047;SDS011;46904;49.438;8.752;2022-10-23T04:56:05;1.95;;;1.20;;
52047;SDS011;46904;49.438;8.752;2022-10-23T04:58:55;3.42;;;1.30;;
52047;SDS011;46904;49.438;8.752;2022-10-23T05:01:46;2.85;;;1.80;;
52047;SDS011;46904;49.438;8.752;2022-10-23T05:04:37;3.17;;;1.20;;
52047;SDS011;46904;49.438;8.752;2022-10-23T05:07:28;6.25;;;1.40;;
52047;SDS011;46904;49.438;8.752;2022-10-23T05:10:18;2.67;;;1.20;;
52047;SDS011;46904;49.438;8.752;2022-10-23T05:13:08;2.45;;;1.30;;
52047;SDS011;46904;49.438;8.752;2022-10-23T05:15:58;4.18;;;1.65;;
52047;SDS011;46904;49.438;8.752;2022-10-23T05:18:48;1.30;;;1.20;;
52047;SDS011;46904;49.438;8.752;2022-10-23T05:21:39;3.05;;;1.70;;
52047;SDS011;46904;49.438;8.752;2022-10-23T05:24:30;2.67;;;1.00;;
52047;SDS011;46904;49.438;8.752;2022-10-23T05:27:20;5.13;;;1.90;;
52047;SDS011;46904;49.438;8.752;2022-10-23T05:30:11;2.60;;;1.20;;
52047;SDS011;46904;49.438;8.752;2022-10-23T05:33:02;1.88;;;1.20;;
52047;SDS011;46904;49.438;8.752;2022-10-23T05:35:52;4.30;;;1.20;;
52047;SDS011;46904;49.438;8.752;2022-10-23T05:38:42;2.20;;;1.27;;
52047;SDS011;46904;49.438;8.752;2022-10-23T05:41:33;3.00;;;1.63;;
52047;SDS011;46904;49.438;8.752;2022-10-23T05:44:24;1.83;;;1.40;;
52047;SDS011;46904;49.438;8.752;2022-10-23T05:47:14;2.13;;;1.70;;
52047;SDS011;46904;49.438;8.752;2022-10-23T05:50:05;2.95;;;1.58;;
52047;SDS011;46904;49.438;8.752;2022-10-23T05:52:56;6.05;;;1.30;;
52047;SDS011;46904;49.438;8.752;2022-10-23T05:55:47;1.80;;;1.45;;
52047;SDS011;46904;49.438;8.752;2022-10-23T05:58:37;3.33;;;1.33;;
52047;SDS011;46904;49.438;8.752;2022-10-23T06:01:27;1.75;;;1.45;;
52047;SDS011;46904;49.438;8.752;2022-10-23T06:04:18;3.65;;;1.08;;
52047;SDS011;46904;49.438;8.752;2022-10-23T06:07:12;3.95;;;1.02;;
52047;SDS011;46904;49.438;8.752;2022-10-23T06:10:03;1.67;;;1.58;;
52047;SDS011;46904;49.438;8.752;2022-10-23T06:12:53;3.47;;;1.25;;
52047;SDS011;46904;49.438;8.752;2022-10-23T06:15:44;2.55;;;1.20;;
52047;SDS011;46904;49.438;8.752;2022-10-23T06:18:35;2.97;;;1.10;;
52047;SDS011;46904;49.438;8.752;2022-10-23T06:21:26;2.88;;;1.50;;
52047;SDS011;46904;49.438;8.752;2022-10-23T06:24:17;5.53;;;1.40;;
52047;SDS011;46904;49.438;8.752;2022-10-23T06:27:08;1.92;;;1.23;;
52047;SDS011;46904;49.438;8.752;2022-10-23T06:29:59;2.97;;;1.27;;
52047;SDS011;46904;49.438;8.752;2022-10-23T06:32:50;3.03;;;1.13;;
52047;SDS011;46904;49.438;8.752;2022-10-23T06:35:41;2.28;;;1.45;;
52047;SDS011;46904;49.438;8.752;2022-10-23T06:38:31;1.98;;;1.20;;
52047;SDS011;46904;49.438;8.752;2022-10-23T06:41:21;2.53;;;1.10;;
52047;SDS011;46904;49.438;8.752;2022-10-23T06:44:12;2.70;;;1.10;;
52047;SDS011;46904;49.438;8.752;2022-10-23T06:47:03;2.05;;;1.10;;
52047;SDS011;46904;49.438;8.752;2022-10-23T06:49:54;2.03;;;1.55;;
52047;SDS011;46904;49.438;8.752;2022-10-23T06:52:45;3.22;;;1.30;;
52047;SDS011;46904;49.438;8.752;2022-10-23T06:55:36;2.80;;;1.52;;
52047;SDS011;46904;49.438;8.752;2022-10-23T06:58:27;2.50;;;1.30;;
52047;SDS011;46904;49.438;8.752;2022-10-23T07:01:17;1.80;;;1.48;;
52047;SDS011;46904;49.438;8.752;2022-10-23T07:04:07;3.58;;;1.40;;
52047;SDS011;46904;49.438;8.752;2022-10-23T07:06:57;2.72;;;1.30;;
52047;SDS011;46904;49.438;8.752;2022-10-23T07:09:48;2.25;;;1.30;;
52047;SDS011;46904;49.438;8.752;2022-10-23T07:12:38;1.58;;;1.30;;
52047;SDS011;46904;49.438;8.752;2022-10-23T07:15:28;2.63;;;1.17;;
52047;SDS011;46904;49.438;8.752;2022-10-23T07:18:19;1.38;;;1.13;;
52047;SDS011;46904;49.438;8.752;2022-10-23T07:21:09;2.92;;;1.92;;
52047;SDS011;46904;49.438;8.752;2022-10-23T07:24:01;4.75;;;1.20;;
52047;SDS011;46904;49.438;8.752;2022-10-23T07:26:51;2.10;;;1.30;;
52047;SDS011;46904;49.438;8.752;2022-10-23T07:29:42;1.98;;;1.10;;
52047;SDS011;46904;49.438;8.752;2022-10-23T07:32:32;2.03;;;1.23;;
52047;SDS011;46904;49.438;8.752;2022-10-23T07:35:23;2.90;;;1.65;;
52047;SDS011;46904;49.438;8.752;2022-10-23T07:38:14;3.22;;;1.30;;
52047;SDS011;46904;49.438;8.752;2022-10-23T07:41:05;3.90;;;1.52;;
52047;SDS011;46904;49.438;8.752;2022-10-23T07:43:56;2.67;;;1.70;;
52047;SDS011;46904;49.438;8.752;2022-10-23T07:46:47;5.82;;;2.42;;
52047;SDS011;46904;49.438;8.752;2022-10-23T07:49:37;4.22;;;2.50;;
52047;SDS011;46904;49.438;8.752;2022-10-23T07:52:27;3.20;;;2.35;;
52047;SDS011;46904;49.438;8.752;2022-10-23T07:55:17;6.85;;;2.83;;
52047;SDS011;46904;49.438;8.752;2022-10-23T07:58:08;4.38;;;2.53;;
52047;SDS011;46904;49.438;8.752;2022-10-23T08:01:00;2.25;;;1.90;;
52047;SDS011;46904;49.438;8.752;2022-10-23T08:03:51;6.63;;;2.50;;
52047;SDS011;46904;49.438;8.752;2022-10-23T08:06:42;1.98;;;1.50;;
52047;SDS011;46904;49.438;8.752;2022-10-23T08:09:33;2.55;;;1.60;;
52047;SDS011;46904;49.438;8.752;2022-10-23T08:12:24;2.03;;;1.23;;
52047;SDS011;46904;49.438;8.752;2022-10-23T08:15:15;2.03;;;1.50;;
52047;SDS011;46904;49.438;8.752;2022-10-23T08:18:05;2.00;;;1.23;;
52047;SDS011;46904;49.438;8.752;2022-10-23T08:20:59;3.47;;;1.40;;
52047;SDS011;46904;49.438;8.752;2022-10-23T08:23:51;1.58;;;1.40;;
52047;SDS011;46904;49.438;8.752;2022-10-23T08:26:43;2.40;;;1.20;;
52047;SDS011;46904;49.438;8.752;2022-10-23T08:29:33;1.27;;;1.17;;
52047;SDS011;46904;49.438;8.752;2022-10-23T08:32:27;1.85;;;1.25;;
52047;SDS011;46904;49.438;8.752;2022-10-23T08:35:17;5.18;;;1.40;;
52047;SDS011;46904;49.438;8.752;2022-10-23T08:38:09;1.42;;;1.08;;
52047;SDS011;46904;49.438;8.752;2022-10-23T08:40:59;2.78;;;1.10;;
52047;SDS011;46904;49.438;8.752;2022-10-23T08:43:53;4.97;;;1.55;;
52047;SDS011;46904;49.438;8.752;2022-10-23T08:46:46;1.90;;;1.15;;
52047;SDS011;46904;49.438;8.752;2022-10-23T08:49:54;2.22;;;1.05;;
52047;SDS011;46904;49.438;8.752;2022-10-23T08:52:46;4.40;;;1.00;;
52047;SDS011;46904;49.438;8.752;2022-10-23T08:55:42;0.80;;;0.80;;
52047;SDS011;46904;49.438;8.752;2022-10-23T08:58:36;4.28;;;1.10;;
52047;SDS011;46904;49.438;8.752;2022-10-23T09:01:33;2.90;;;0.90;;
52047;SDS011;46904;49.438;8.752;2022-10-23T09:04:25;1.52;;;1.10;;
52047;SDS011;46904;49.438;8.752;2022-10-23T09:10:49;3.00;;;1.20;;
52047;SDS011;46904;49.438;8.752;2022-10-23T09:16:54;1.85;;;1.40;;
52047;SDS011;46904;49.438;8.752;2022-10-23T09:19:53;1.63;;;1.17;;
52047;SDS011;46904;49.438;8.752;2022-10-23T09:22:44;1.77;;;1.23;;
52047;SDS011;46904;49.438;8.752;2022-10-23T09:25:37;2.05;;;1.10;;
52047;SDS011;46904;49.438;8.752;2022-10-23T09:28:31;2.13;;;1.10;;
52047;SDS011;46904;49.438;8.752;2022-10-23T09:31:21;2.78;;;1.20;;
52047;SDS011;46904;49.438;8.752;2022-10-23T09:34:15;1.50;;;1.00;;
52047;SDS011;46904;49.438;8.752;2022-10-23T09:37:24;2.05;;;1.00;;
52047;SDS011;46904;49.438;8.752;2022-10-23T09:40:16;1.27;;;1.00;;
52047;SDS011;46904;49.438;8.752;2022-10-23T09:43:13;3.42;;;1.00;;
52047;SDS011;46904;49.438;8.752;2022-10-23T09:46:04;4.07;;;1.10;;
52047;SDS011;46904;49.438;8.752;2022-10-23T09:48:58;1.10;;;1.00;;
52047;SDS011;46904;49.438;8.752;2022-10-23T09:54:58;0.80;;;0.75;;
52047;SDS011;46904;49.438;8.752;2022-10-23T09:57:49;1.25;;;0.90;;
52047;SDS011;46904;49.438;8.752;2022-10-23T10:00:44;1.10;;;1.00;;
52047;SDS011;46904;49.438;8.752;2022-10-23T10:03:35;1.33;;;1.13;;
52047;SDS011;46904;49.438;8.752;2022-10-23T10:06:27;1.05;;;0.85;;
52047;SDS011;46904;49.438;8.752;2022-10-23T10:09:18;0.98;;;0.90;;
52047;SDS011;46904;49.438;8.752;2022-10-23T10:12:45;1.85;;;0.90;;
52047;SDS011;46904;49.438;8.752;2022-10-23T10:18:36;14.82;;;1.33;;
52047;SDS011;46904;49.438;8.752;2022-10-23T10:21:32;1.42;;;0.80;;
52047;SDS011;46904;49.438;8.752;2022-10-23T10:24:29;1.05;;;0.95;;
52047;SDS011;46904;49.438;8.752;2022-10-23T10:30:21;1.08;;;0.98;;
52047;SDS011;46904;49.438;8.752;2022-10-23T10:33:16;2.28;;;1.10;;
52047;SDS011;46904;49.438;8.752;2022-10-23T10:36:21;1.00;;;0.88;;
52047;SDS011;46904;49.438;8.752;2022-10-23T10:42:28;1.90;;;0.80;;
52047;SDS011;46904;49.438;8.752;2022-10-23T10:45:32;3.53;;;0.90;;
52047;SDS011;46904;49.438;8.752;2022-10-23T10:48:26;2.63;;;0.90;;
52047;SDS011;46904;49.438;8.752;2022-10-23T10:57:31;1.10;;;0.95;;
52047;SDS011;46904;49.438;8.752;2022-10-23T11:00:22;2.13;;;0.70;;
52047;SDS011;46904;49.438;8.752;2022-10-23T11:06:08;1.00;;;0.88;;
52047;SDS011;46904;49.438;8.752;2022-10-23T11:09:04;2.10;;;0.85;;
52047;SDS011;46904;49.438;8.752;2022-10-23T11:12:13;1.20;;;0.85;;
52047;SDS011;46904;49.438;8.752;2022-10-23T11:18:27;1.20;;;1.10;;
52047;SDS011;46904;49.438;8.752;2022-10-23T11:21:25;1.48;;;1.05;;
52047;SDS011;46904;49.438;8.752;2022-10-23T11:24:24;0.98;;;0.70;;
52047;SDS011;46904;49.438;8.752;2022-10-23T11:30:38;1.88;;;1.00;;
52047;SDS011;46904;49.438;8.752;2022-10-23T11:39:33;1.40;;;0.82;;
52047;SDS011;46904;49.438;8.752;2022-10-23T11:45:35;0.80;;;0.80;;
52047;SDS011;46904;49.438;8.752;2022-10-23T11:48:35;1.55;;;0.90;;
52047;SDS011;46904;49.438;8.752;2022-10-23T11:51:36;0.80;;;0.80;;
52047;SDS011;46904;49.438;8.752;2022-10-23T11:54:27;1.13;;;0.98;;
52047;SDS011;46904;49.438;8.752;2022-10-23T11:57:17;2.47;;;0.90;;
52047;SDS011;46904;49.438;8.752;2022-10-23T12:00:21;1.52;;;1.23;;
52047;SDS011;46904;49.438;8.752;2022-10-23T12:03:20;0.77;;;0.70;;
52047;SDS011;46904;49.438;8.752;2022-10-23T12:06:17;1.67;;;1.30;;
52047;SDS011;46904;49.438;8.752;2022-10-23T12:12:25;2.25;;;0.98;;
52047;SDS011;46904;49.438;8.752;2022-10-23T12:15:18;1.58;;;0.80;;
52047;SDS011;46904;49.438;8.752;2022-10-23T12:18:13;3.90;;;1.05;;
52047;SDS011;46904;49.438;8.752;2022-10-23T12:21:03;2.05;;;0.80;;
52047;SDS011;46904;49.438;8.752;2022-10-23T12:29:51;2.30;;;1.10;;
52047;SDS011;46904;49.438;8.752;2022-10-23T12:38:48;1.00;;;1.00;;
52047;SDS011;46904;49.438;8.752;2022-10-23T12:41:39;1.02;;;0.90;;
52047;SDS011;46904;49.438;8.752;2022-10-23T12:44:31;3.97;;;0.77;;
52047;SDS011;46904;49.438;8.752;2022-10-23T12:47:21;1.10;;;1.00;;
52047;SDS011;46904;49.438;8.752;2022-10-23T12:50:23;1.92;;;1.38;;
52047;SDS011;46904;49.438;8.752;2022-10-23T12:53:13;3.40;;;1.23;;
52047;SDS011;46904;49.438;8.752;2022-10-23T12:56:04;1.10;;;0.90;;
52047;SDS011;46904;49.438;8.752;2022-10-23T12:58:56;4.10;;;1.10;;
52047;SDS011;46904;49.438;8.752;2022-10-23T13:01:47;1.60;;;1.00;;
52047;SDS011;46904;49.438;8.752;2022-10-23T13:04:37;0.88;;;0.82;;
52047;SDS011;46904;49.438;8.752;2022-10-23T13:07:29;1.65;;;1.35;;
52047;SDS011;46904;49.438;8.752;2022-10-23T13:10:20;1.70;;;1.02;;
52047;SDS011;46904;49.438;8.752;2022-10-23T13:13:11;0.82;;;0.82;;
52047;SDS011;46904;49.438;8.752;2022-10-23T13:16:12;1.20;;;0.90;;
52047;SDS011;46904;49.438;8.752;2022-10-23T13:19:05;0.90;;;0.75;;
52047;SDS011;46904;49.438;8.752;2022-10-23T13:21:56;1.70;;;1.00;;
52047;SDS011;46904;49.438;8.752;2022-10-23T13:24:46;0.88;;;0.77;;
52047;SDS011;46904;49.438;8.752;2022-10-23T13:27:36;1.08;;;0.88;;
52047;SDS011;46904;49.438;8.752;2022-10-23T13:30:34;4.15;;;1.10;;
52047;SDS011;46904;49.438;8.752;2022-10-23T13:33:30;2.20;;;0.90;;
52047;SDS011;46904;49.438;8.752;2022-10-23T13:36:22;3.83;;;1.35;;
52047;SDS011;46904;49.438;8.752;2022-10-23T13:39:13;4.45;;;1.13;;
52047;SDS011;46904;49.438;8.752;2022-10-23T13:42:09;0.95;;;0.85;;
52047;SDS011;46904;49.438;8.752;2022-10-23T13:45:00;1.05;;;0.98;;
52047;SDS011;46904;49.438;8.752;2022-10-23T13:47:50;2.03;;;0.90;;
52047;SDS011;46904;49.438;8.752;2022-10-23T13:50:40;0.88;;;0.88;;
52047;SDS011;46904;49.438;8.752;2022-10-23T13:53:31;2.42;;;1.10;;
52047;SDS011;46904;49.438;8.752;2022-10-23T13:56:23;1.52;;;1.20;;
52047;SDS011;46904;49.438;8.752;2022-10-23T13:59:13;5.00;;;1.00;;
52047;SDS011;46904;49.438;8.752;2022-10-23T14:02:26;1.10;;;1.00;;
52047;SDS011;46904;49.438;8.752;2022-10-23T14:05:15;1.13;;;1.00;;
52047;SDS011;46904;49.438;8.752;2022-10-23T14:08:05;5.45;;;1.35;;
52047;SDS011;46904;49.438;8.752;2022-10-23T14:10:55;1.48;;;1.00;;
52047;SDS011;46904;49.438;8.752;2022-10-23T14:13:47;2.78;;;0.70;;
52047;SDS011;46904;49.438;8.752;2022-10-23T14:16:38;4.60;;;1.00;;
52047;SDS011;46904;49.438;8.752;2022-10-23T14:19:28;1.63;;;1.05;;
52047;SDS011;46904;49.438;8.752;2022-10-23T14:22:18;3.00;;;0.90;;
52047;SDS011;46904;49.438;8.752;2022-10-23T14:25:08;2.35;;;1.20;;
52047;SDS011;46904;49.438;8.752;2022-10-23T14:27:58;2.70;;;1.00;;
52047;SDS011;46904;49.438;8.752;2022-10-23T14:30:48;2.25;;;0.90;;
52047;SDS011;46904;49.438;8.752;2022-10-23T14:33:39;1.20;;;1.10;;
52047;SDS011;46904;49.438;8.752;2022-10-23T14:36:30;9.55;;;1.85;;
52047;SDS011;46904;49.438;8.752;2022-10-23T14:39:20;2.80;;;1.08;;
52047;SDS011;46904;49.438;8.752;2022-10-23T14:42:12;1.60;;;1.00;;
52047;SDS011;46904;49.438;8.752;2022-10-23T14:45:03;0.95;;;0.90;;
52047;SDS011;46904;49.438;8.752;2022-10-23T14:47:53;2.92;;;0.80;;
52047;SDS011;46904;49.438;8.752;2022-10-23T14:50:44;1.00;;;0.88;;
52047;SDS011;46904;49.438;8.752;2022-10-23T14:53:35;3.95;;;0.90;;
52047;SDS011;46904;49.438;8.752;2022-10-23T14:56:26;3.40;;;1.13;;
52047;SDS011;46904;49.438;8.752;2022-10-23T14:59:16;3.90;;;1.10;;
52047;SDS011;46904;49.438;8.752;2022-10-23T15:02:10;2.10;;;1.40;;
52047;SDS011;46904;49.438;8.752;2022-10-23T15:05:00;2.45;;;1.40;;
52047;SDS011;46904;49.438;8.752;2022-10-23T15:07:50;9.85;;;2.10;;
52047;SDS011;46904;49.438;8.752;2022-10-23T15:10:40;35.38;;;3.90;;
52047;SDS011;46904;49.438;8.752;2022-10-23T15:13:31;18.83;;;3.20;;
52047;SDS011;46904;49.438;8.752;2022-10-23T15:16:23;10.40;;;2.17;;
52047;SDS011;46904;49.438;8.752;2022-10-23T15:19:13;4.20;;;1.50;;
52047;SDS011;46904;49.438;8.752;2022-10-23T15:22:03;7.00;;;1.10;;
52047;SDS011;46904;49.438;8.752;2022-10-23T15:24:53;2.25;;;1.33;;
52047;SDS011;46904;49.438;8.752;2022-10-23T15:27:44;8.10;;;1.30;;
52047;SDS011;46904;49.438;8.752;2022-10-23T15:30:35;4.53;;;1.30;;
52047;SDS011;46904;49.438;8.752;2022-10-23T15:33:26;2.53;;;0.90;;
52047;SDS011;46904;49.438;8.752;2022-10-23T15:36:17;5.65;;;1.45;;
52047;SDS011;46904;49.438;8.752;2022-10-23T15:39:08;4.85;;;0.98;;
52047;SDS011;46904;49.438;8.752;2022-10-23T15:41:59;1.38;;;1.00;;
52047;SDS011;46904;49.438;8.752;2022-10-23T15:44:49;3.35;;;1.80;;
52047;SDS011;46904;49.438;8.752;2022-10-23T15:47:39;23.27;;;2.40;;
52047;SDS011;46904;49.438;8.752;2022-10-23T15:50:30;1.88;;;1.33;;
52047;SDS011;46904;49.438;8.752;2022-10-23T15:53:20;3.42;;;1.10;;
52047;SDS011;46904;49.438;8.752;2022-10-23T15:56:10;4.10;;;1.00;;
52047;SDS011;46904;49.438;8.752;2022-10-23T15:59:02;3.13;;;1.40;;
52047;SDS011;46904;49.438;8.752;2022-10-23T16:01:53;4.72;;;1.80;;
52047;SDS011;46904;49.438;8.752;2022-10-23T16:04:44;2.33;;;1.17;;
52047;SDS011;46904;49.438;8.752;2022-10-23T16:07:34;2.75;;;1.58;;
52047;SDS011;46904;49.438;8.752;2022-10-23T16:10:24;1.38;;;1.10;;
52047;SDS011;46904;49.438;8.752;2022-10-23T16:13:15;2.15;;;1.48;;
52047;SDS011;46904;49.438;8.752;2022-10-23T16:16:06;2.30;;;1.35;;
52047;SDS011;46904;49.438;8.752;2022-10-23T16:19:00;2.67;;;1.00;;
52047;SDS011;46904;49.438;8.752;2022-10-23T16:21:51;5.75;;;1.58;;
52047;SDS011;46904;49.438;8.752;2022-10-23T16:24:41;4.72;;;1.20;;
52047;SDS011;46904;49.438;8.752;2022-10-23T16:27:31;1.60;;;1.00;;
52047;SDS011;46904;49.438;8.752;2022-10-23T16:30:21;3.25;;;1.50;;
52047;SDS011;46904;49.438;8.752;2022-10-23T16:33:12;5.00;;;1.10;;
52047;SDS011;46904;49.438;8.752;2022-10-23T16:36:04;2.58;;;2.05;;
52047;SDS011;46904;49.438;8.752;2022-10-23T16:38:55;3.63;;;1.17;;
52047;SDS011;46904;49.438;8.752;2022-10-23T16:41:46;2.08;;;1.25;;
52047;SDS011;46904;49.438;8.752;2022-10-23T16:44:36;2.55;;;1.42;;
52047;SDS011;46904;49.438;8.752;2022-10-23T16:47:29;4.35;;;1.75;;
52047;SDS011;46904;49.438;8.752;2022-10-23T16:50:19;6.47;;;1.52;;
52047;SDS011;46904;49.438;8.752;2022-10-23T16:53:10;2.80;;;1.52;;
52047;SDS011;46904;49.438;8.752;2022-10-23T16:56:04;1.90;;;1.40;;
52047;SDS011;46904;49.438;8.752;2022-10-23T16:58:56;3.10;;;1.35;;
52047;SDS011;46904;49.438;8.752;2022-10-23T17:01:47;1.67;;;1.40;;
52047;SDS011;46904;49.438;8.752;2022-10-23T17:04:39;2.90;;;1.90;;
52047;SDS011;46904;49.438;8.752;2022-10-23T17:07:30;2.17;;;1.85;;
52047;SDS011;46904;49.438;8.752;2022-10-23T17:10:20;5.22;;;1.85;;
52047;SDS011;46904;49.438;8.752;2022-10-23T17:13:11;2.83;;;1.95;;
52047;SDS011;46904;49.438;8.752;2022-10-23T17:16:14;2.63;;;1.85;;
52047;SDS011;46904;49.438;8.752;2022-10-23T17:19:06;3.78;;;1.90;;
52047;SDS011;46904;49.438;8.752;2022-10-23T17:21:56;3.08;;;1.50;;
52047;SDS011;46904;49.438;8.752;2022-10-23T17:24:47;5.07;;;1.90;;
52047;SDS011;46904;49.438;8.752;2022-10-23T17:27:37;3.50;;;2.03;;
52047;SDS011;46904;49.438;8.752;2022-10-23T17:30:28;3.13;;;2.03;;
52047;SDS011;46904;49.438;8.752;2022-10-23T17:33:20;2.78;;;1.42;;
52047;SDS011;46904;49.438;8.752;2022-10-23T17:36:11;4.28;;;1.70;;
52047;SDS011;46904;49.438;8.752;2022-10-23T17:39:09;4.65;;;1.83;;
52047;SDS011;46904;49.438;8.752;2022-10-23T17:41:59;8.05;;;1.77;;
52047;SDS011;46904;49.438;8.752;2022-10-23T17:44:49;2.45;;;1.60;;
52047;SDS011;46904;49.438;8.752;2022-10-23T17:47:41;5.82;;;1.67;;
52047;SDS011;46904;49.438;8.752;2022-10-23T17:50:32;5.85;;;1.73;;
52047;SDS011;46904;49.438;8.752;2022-10-23T17:53:23;2.97;;;1.70;;
52047;SDS011;46904;49.438;8.752;2022-10-23T17:56:18;4.10;;;2.47;;
52047;SDS011;46904;49.438;8.752;2022-10-23T17:59:10;5.82;;;2.22;;
52047;SDS011;46904;49.438;8.752;2022-10-23T18:02:01;5.72;;;3.28;;
52047;SDS011;46904;49.438;8.752;2022-10-23T18:04:52;3.17;;;1.80;;
52047;SDS011;46904;49.438;8.752;2022-10-23T18:07:43;5.53;;;1.80;;
52047;SDS011;46904;49.438;8.752;2022-10-23T18:10:35;3.72;;;2.00;;
52047;SDS011;46904;49.438;8.752;2022-10-23T18:13:25;4.45;;;1.60;;
52047;SDS011;46904;49.438;8.752;2022-10-23T18:16:16;6.45;;;2.47;;
52047;SDS011;46904;49.438;8.752;2022-10-23T18:19:06;3.83;;;2.97;;
52047;SDS011;46904;49.438;8.752;2022-10-23T18:21:57;6.75;;;2.13;;
52047;SDS011;46904;49.438;8.752;2022-10-23T18:24:48;3.85;;;1.83;;
52047;SDS011;46904;49.438;8.752;2022-10-23T18:27:38;3.10;;;2.20;;
52047;SDS011;46904;49.438;8.752;2022-10-23T18:30:28;3.45;;;1.70;;
52047;SDS011;46904;49.438;8.752;2022-10-23T18:33:19;5.57;;;1.90;;
52047;SDS011;46904;49.438;8.752;2022-10-23T18:36:20;4.82;;;1.80;;
52047;SDS011;46904;49.438;8.752;2022-10-23T18:39:12;4.15;;;1.73;;